sensor_id;sensor_type;location;lat;lon;timestamp;pressure;altitude;pressure_sealevel;temperature;humidity
51439;BME280;38816;51.142;-0.974;2023-04-19T00:00:29;100983.09;;;6.04;100.00
51439;BME280;38816;51.142;-0.974;2023-04-19T00:02:54;100998.53;;;6.07;100.00
51439;BME280;38816;51.142;-0.974;2023-04-19T00:05:20;101002.78;;;6.07;100.00
51439;BME280;38816;51.142;-0.974;2023-04-19T00:07:47;101002.78;;;6.07;100.00
51439;BME280;38816;51.142;-0.974;2023-04-19T00:10:13;100997.88;;;6.12;100.00
51439;BME280;38816;51.142;-0.974;2023-04-19T00:12:38;100987.44;;;6.07;100.00
51439;BME280;38816;51.142;-0.974;2023-04-19T00:15:04;100990.97;;;6.09;100.00
51439;BME280;38816;51.142;-0.974;2023-04-19T00:17:30;100997.81;;;6.10;100.00
51439;BME280;38816;51.142;-0.974;2023-04-19T00:19:56;100994.25;;;6.06;100.00
51439;BME280;38816;51.142;-0.974;2023-04-19T00:22:21;100993.38;;;6.06;100.00
51439;BME280;38816;51.142;-0.974;2023-04-19T00:24:47;100983.97;;;6.05;100.00
51439;BME280;38816;51.142;-0.974;2023-04-19T00:27:12;100987.66;;;6.12;100.00
51439;BME280;38816;51.142;-0.974;2023-04-19T00:29:37;100995.31;;;6.12;100.00
51439;BME280;38816;51.142;-0.974;2023-04-19T00:32:03;100985.97;;;6.12;100.00
51439;BME280;38816;51.142;-0.974;2023-04-19T00:34:30;100985.72;;;6.06;100.00
51439;BME280;38816;51.142;-0.974;2023-04-19T00:36:55;100982.22;;;6.04;100.00
51439;BME280;38816;51.142;-0.974;2023-04-19T00:39:21;100980.44;;;6.03;100.00
51439;BME280;38816;51.142;-0.974;2023-04-19T00:41:46;100964.00;;;5.96;100.00
51439;BME280;38816;51.142;-0.974;2023-04-19T00:44:12;100971.00;;;6.00;100.00
51439;BME280;38816;51.142;-0.974;2023-04-19T00:46:37;100964.81;;;5.95;100.00
51439;BME280;38816;51.142;-0.974;2023-04-19T00:49:03;100965.13;;;6.03;100.00
51439;BME280;38816;51.142;-0.974;2023-04-19T00:51:28;100950.50;;;5.99;100.00
51439;BME280;38816;51.142;-0.974;2023-04-19T00:53:54;100960.03;;;6.03;100.00
51439;BME280;38816;51.142;-0.974;2023-04-19T00:56:21;100969.69;;;6.08;100.00
51439;BME280;38816;51.142;-0.974;2023-04-19T00:58:47;100969.69;;;6.08;100.00
51439;BME280;38816;51.142;-0.974;2023-04-19T01:01:13;100957.69;;;6.07;100.00
51439;BME280;38816;51.142;-0.974;2023-04-19T01:03:38;100955.34;;;6.12;100.00
51439;BME280;38816;51.142;-0.974;2023-04-19T01:06:04;100949.53;;;6.15;100.00
51439;BME280;38816;51.142;-0.974;2023-04-19T01:08:29;100966.13;;;6.24;100.00
51439;BME280;38816;51.142;-0.974;2023-04-19T01:10:55;100969.19;;;6.35;100.00
51439;BME280;38816;51.142;-0.974;2023-04-19T01:13:20;100945.25;;;6.33;100.00
51439;BME280;38816;51.142;-0.974;2023-04-19T01:15:46;100956.75;;;6.43;100.00
51439;BME280;38816;51.142;-0.974;2023-04-19T01:18:11;100959.78;;;6.53;100.00
51439;BME280;38816;51.142;-0.974;2023-04-19T01:20:38;100951.50;;;6.59;100.00
51439;BME280;38816;51.142;-0.974;2023-04-19T01:23:03;100953.50;;;6.66;100.00
51439;BME280;38816;51.142;-0.974;2023-04-19T01:25:28;100948.00;;;6.76;100.00
51439;BME280;38816;51.142;-0.974;2023-04-19T01:27:54;100950.16;;;6.87;100.00
51439;BME280;38816;51.142;-0.974;2023-04-19T01:30:19;100941.13;;;6.95;100.00
51439;BME280;38816;51.142;-0.974;2023-04-19T01:32:45;100941.56;;;7.05;100.00
51439;BME280;38816;51.142;-0.974;2023-04-19T01:35:10;100925.97;;;6.99;100.00
51439;BME280;38816;51.142;-0.974;2023-04-19T01:37:36;100932.22;;;7.06;100.00
51439;BME280;38816;51.142;-0.974;2023-04-19T01:40:05;100929.28;;;6.97;100.00
51439;BME280;38816;51.142;-0.974;2023-04-19T01:42:31;100922.22;;;6.91;100.00
51439;BME280;38816;51.142;-0.974;2023-04-19T01:44:56;100933.06;;;6.85;100.00
51439;BME280;38816;51.142;-0.974;2023-04-19T01:47:22;100915.84;;;6.81;100.00
51439;BME280;38816;51.142;-0.974;2023-04-19T01:49:49;100923.66;;;6.84;100.00
51439;BME280;38816;51.142;-0.974;2023-04-19T01:52:14;100929.69;;;6.87;100.00
51439;BME280;38816;51.142;-0.974;2023-04-19T01:54:39;100927.97;;;6.85;100.00
51439;BME280;38816;51.142;-0.974;2023-04-19T01:57:05;100923.34;;;6.77;100.00
51439;BME280;38816;51.142;-0.974;2023-04-19T01:59:30;100927.56;;;6.76;100.00
51439;BME280;38816;51.142;-0.974;2023-04-19T02:01:55;100920.44;;;6.69;100.00
51439;BME280;38816;51.142;-0.974;2023-04-19T02:04:21;100917.75;;;6.66;100.00
51439;BME280;38816;51.142;-0.974;2023-04-19T02:06:46;100903.44;;;6.50;100.00
51439;BME280;38816;51.142;-0.974;2023-04-19T02:09:12;100922.41;;;6.55;100.00
51439;BME280;38816;51.142;-0.974;2023-04-19T02:11:37;100909.28;;;6.48;100.00
51439;BME280;38816;51.142;-0.974;2023-04-19T02:14:03;100901.50;;;6.45;100.00
51439;BME280;38816;51.142;-0.974;2023-04-19T02:16:28;100910.09;;;6.47;100.00
51439;BME280;38816;51.142;-0.974;2023-04-19T02:18:53;100893.72;;;6.42;100.00
51439;BME280;38816;51.142;-0.974;2023-04-19T02:21:19;100908.38;;;6.46;100.00
51439;BME280;38816;51.142;-0.974;2023-04-19T02:23:44;100909.03;;;6.42;100.00
51439;BME280;38816;51.142;-0.974;2023-04-19T02:26:10;100910.56;;;6.38;100.00
51439;BME280;38816;51.142;-0.974;2023-04-19T02:28:35;100903.53;;;6.32;100.00
51439;BME280;38816;51.142;-0.974;2023-04-19T02:31:05;100905.56;;;6.40;100.00
51439;BME280;38816;51.142;-0.974;2023-04-19T02:33:31;100905.25;;;6.33;100.00
51439;BME280;38816;51.142;-0.974;2023-04-19T02:35:56;100901.78;;;6.31;100.00
51439;BME280;38816;51.142;-0.974;2023-04-19T02:38:21;100904.19;;;6.28;100.00
51439;BME280;38816;51.142;-0.974;2023-04-19T02:40:47;100909.28;;;6.28;100.00
51439;BME280;38816;51.142;-0.974;2023-04-19T02:43:12;100895.50;;;6.25;100.00
51439;BME280;38816;51.142;-0.974;2023-04-19T02:45:38;100901.59;;;6.27;100.00
51439;BME280;38816;51.142;-0.974;2023-04-19T02:48:03;100889.28;;;6.18;100.00
51439;BME280;38816;51.142;-0.974;2023-04-19T02:50:29;100904.84;;;6.24;100.00
51439;BME280;38816;51.142;-0.974;2023-04-19T02:52:56;100885.50;;;6.10;100.00
51439;BME280;38816;51.142;-0.974;2023-04-19T02:55:22;100899.59;;;6.21;100.00
51439;BME280;38816;51.142;-0.974;2023-04-19T02:57:47;100897.75;;;6.17;100.00
51439;BME280;38816;51.142;-0.974;2023-04-19T03:00:13;100904.41;;;6.14;100.00
51439;BME280;38816;51.142;-0.974;2023-04-19T03:02:40;100888.56;;;6.03;100.00
51439;BME280;38816;51.142;-0.974;2023-04-19T03:05:05;100905.56;;;6.02;100.00
51439;BME280;38816;51.142;-0.974;2023-04-19T03:07:31;100895.75;;;5.92;100.00
51439;BME280;38816;51.142;-0.974;2023-04-19T03:09:57;100894.81;;;5.90;100.00
51439;BME280;38816;51.142;-0.974;2023-04-19T03:12:22;100896.31;;;5.87;100.00
51439;BME280;38816;51.142;-0.974;2023-04-19T03:14:47;100910.41;;;5.96;100.00
51439;BME280;38816;51.142;-0.974;2023-04-19T03:17:13;100880.16;;;5.86;100.00
51439;BME280;38816;51.142;-0.974;2023-04-19T03:19:38;100895.91;;;5.95;100.00
51439;BME280;38816;51.142;-0.974;2023-04-19T03:22:04;100893.97;;;5.91;100.00
51439;BME280;38816;51.142;-0.974;2023-04-19T03:24:29;100877.28;;;5.80;100.00
51439;BME280;38816;51.142;-0.974;2023-04-19T03:26:56;100894.22;;;5.96;100.00
51439;BME280;38816;51.142;-0.974;2023-04-19T03:29:21;100898.53;;;5.97;100.00
51439;BME280;38816;51.142;-0.974;2023-04-19T03:31:47;100893.25;;;5.94;100.00
51439;BME280;38816;51.142;-0.974;2023-04-19T03:34:13;100894.88;;;5.92;100.00
51439;BME280;38816;51.142;-0.974;2023-04-19T03:36:39;100890.47;;;5.89;100.00
51439;BME280;38816;51.142;-0.974;2023-04-19T03:39:04;100885.03;;;5.81;100.00
51439;BME280;38816;51.142;-0.974;2023-04-19T03:41:30;100874.75;;;5.80;100.00
51439;BME280;38816;51.142;-0.974;2023-04-19T03:43:55;100891.06;;;5.83;100.00
51439;BME280;38816;51.142;-0.974;2023-04-19T03:46:22;100886.13;;;5.87;100.00
51439;BME280;38816;51.142;-0.974;2023-04-19T03:48:47;100884.59;;;5.90;100.00
51439;BME280;38816;51.142;-0.974;2023-04-19T03:51:13;100882.19;;;5.93;100.00
51439;BME280;38816;51.142;-0.974;2023-04-19T03:53:40;100859.75;;;5.86;100.00
51439;BME280;38816;51.142;-0.974;2023-04-19T03:56:05;100863.38;;;5.91;100.00
51439;BME280;38816;51.142;-0.974;2023-04-19T03:58:30;100863.59;;;5.96;100.00
51439;BME280;38816;51.142;-0.974;2023-04-19T04:04:05;100872.84;;;5.94;100.00
51439;BME280;38816;51.142;-0.974;2023-04-19T04:06:30;100872.78;;;5.92;100.00
51439;BME280;38816;51.142;-0.974;2023-04-19T04:08:56;100876.38;;;5.96;100.00
51439;BME280;38816;51.142;-0.974;2023-04-19T04:11:21;100864.31;;;5.93;100.00
51439;BME280;38816;51.142;-0.974;2023-04-19T04:13:46;100871.31;;;5.97;100.00
51439;BME280;38816;51.142;-0.974;2023-04-19T04:16:13;100861.91;;;5.96;100.00
51439;BME280;38816;51.142;-0.974;2023-04-19T04:18:39;100869.78;;;6.01;100.00
51439;BME280;38816;51.142;-0.974;2023-04-19T04:21:04;100867.44;;;6.05;100.00
51439;BME280;38816;51.142;-0.974;2023-04-19T04:23:29;100862.78;;;5.97;100.00
51439;BME280;38816;51.142;-0.974;2023-04-19T04:25:58;100866.41;;;6.02;100.00
51439;BME280;38816;51.142;-0.974;2023-04-19T04:28:29;100866.72;;;6.08;100.00
51439;BME280;38816;51.142;-0.974;2023-04-19T04:30:55;100869.59;;;6.16;100.00
51439;BME280;38816;51.142;-0.974;2023-04-19T04:33:23;100852.53;;;6.15;100.00
51439;BME280;38816;51.142;-0.974;2023-04-19T04:35:49;100859.38;;;6.16;100.00
51439;BME280;38816;51.142;-0.974;2023-04-19T04:38:15;100870.84;;;6.25;100.00
51439;BME280;38816;51.142;-0.974;2023-04-19T04:40:41;100874.50;;;6.30;100.00
51439;BME280;38816;51.142;-0.974;2023-04-19T04:43:07;100859.31;;;6.33;100.00
51439;BME280;38816;51.142;-0.974;2023-04-19T04:45:32;100858.97;;;6.45;100.00
51439;BME280;38816;51.142;-0.974;2023-04-19T04:47:58;100864.47;;;6.54;100.00
51439;BME280;38816;51.142;-0.974;2023-04-19T04:50:23;100868.94;;;6.60;100.00
51439;BME280;38816;51.142;-0.974;2023-04-19T04:52:48;100869.97;;;6.64;100.00
51439;BME280;38816;51.142;-0.974;2023-04-19T04:55:14;100860.47;;;6.61;100.00
51439;BME280;38816;51.142;-0.974;2023-04-19T04:57:39;100871.22;;;6.73;100.00
51439;BME280;38816;51.142;-0.974;2023-04-19T05:00:05;100863.41;;;6.70;100.00
51439;BME280;38816;51.142;-0.974;2023-04-19T05:02:31;100862.75;;;6.74;100.00
51439;BME280;38816;51.142;-0.974;2023-04-19T05:04:56;100874.09;;;6.81;100.00
51439;BME280;38816;51.142;-0.974;2023-04-19T05:07:21;100868.13;;;6.80;100.00
51439;BME280;38816;51.142;-0.974;2023-04-19T05:09:47;100870.19;;;6.89;100.00
51439;BME280;38816;51.142;-0.974;2023-04-19T05:12:12;100859.81;;;6.86;100.00
51439;BME280;38816;51.142;-0.974;2023-04-19T05:14:38;100873.81;;;6.94;100.00
51439;BME280;38816;51.142;-0.974;2023-04-19T05:17:03;100857.59;;;6.94;100.00
51439;BME280;38816;51.142;-0.974;2023-04-19T05:19:29;100867.25;;;7.01;100.00
51439;BME280;38816;51.142;-0.974;2023-04-19T05:21:54;100872.34;;;7.01;100.00
51439;BME280;38816;51.142;-0.974;2023-04-19T05:24:19;100869.25;;;7.08;100.00
51439;BME280;38816;51.142;-0.974;2023-04-19T05:26:45;100873.59;;;7.10;100.00
51439;BME280;38816;51.142;-0.974;2023-04-19T05:29:10;100884.78;;;7.13;100.00
51439;BME280;38816;51.142;-0.974;2023-04-19T05:31:36;100878.66;;;7.09;100.00
51439;BME280;38816;51.142;-0.974;2023-04-19T05:34:01;100879.66;;;7.13;100.00
51439;BME280;38816;51.142;-0.974;2023-04-19T05:36:26;100871.00;;;7.09;100.00
51439;BME280;38816;51.142;-0.974;2023-04-19T05:38:52;100876.22;;;7.12;100.00
51439;BME280;38816;51.142;-0.974;2023-04-19T05:41:17;100888.44;;;7.19;100.00
51439;BME280;38816;51.142;-0.974;2023-04-19T05:43:43;100881.81;;;7.24;100.00
51439;BME280;38816;51.142;-0.974;2023-04-19T05:46:08;100869.72;;;7.20;100.00
51439;BME280;38816;51.142;-0.974;2023-04-19T05:48:33;100881.94;;;7.27;100.00
51439;BME280;38816;51.142;-0.974;2023-04-19T05:50:59;100885.31;;;7.26;100.00
51439;BME280;38816;51.142;-0.974;2023-04-19T05:53:24;100870.66;;;7.22;100.00
51439;BME280;38816;51.142;-0.974;2023-04-19T05:55:49;100887.28;;;7.33;100.00
51439;BME280;38816;51.142;-0.974;2023-04-19T05:58:16;100871.78;;;7.29;100.00
51439;BME280;38816;51.142;-0.974;2023-04-19T06:00:42;100897.78;;;7.40;100.00
51439;BME280;38816;51.142;-0.974;2023-04-19T06:03:07;100897.78;;;7.40;100.00
51439;BME280;38816;51.142;-0.974;2023-04-19T06:05:33;100886.44;;;7.33;100.00
51439;BME280;38816;51.142;-0.974;2023-04-19T06:07:58;100896.06;;;7.39;100.00
51439;BME280;38816;51.142;-0.974;2023-04-19T06:10:24;100901.28;;;7.42;100.00
51439;BME280;38816;51.142;-0.974;2023-04-19T06:12:49;100892.69;;;7.40;100.00
51439;BME280;38816;51.142;-0.974;2023-04-19T06:15:15;100901.63;;;7.51;100.00
51439;BME280;38816;51.142;-0.974;2023-04-19T06:17:40;100899.88;;;7.50;100.00
51439;BME280;38816;51.142;-0.974;2023-04-19T06:20:06;100903.38;;;7.52;100.00
51439;BME280;38816;51.142;-0.974;2023-04-19T06:22:32;100897.56;;;7.56;100.00
51439;BME280;38816;51.142;-0.974;2023-04-19T06:24:58;100900.06;;;7.54;100.00
51439;BME280;38816;51.142;-0.974;2023-04-19T06:27:23;100896.81;;;7.58;100.00
51439;BME280;38816;51.142;-0.974;2023-04-19T06:29:49;100895.19;;;7.60;100.00
51439;BME280;38816;51.142;-0.974;2023-04-19T06:32:14;100897.00;;;7.63;100.00
51439;BME280;38816;51.142;-0.974;2023-04-19T06:34:40;100908.50;;;7.74;100.00
51439;BME280;38816;51.142;-0.974;2023-04-19T06:37:05;100907.75;;;7.77;100.00
51439;BME280;38816;51.142;-0.974;2023-04-19T06:39:30;100892.34;;;7.75;100.00
51439;BME280;38816;51.142;-0.974;2023-04-19T06:41:56;100905.50;;;7.84;100.00
51439;BME280;38816;51.142;-0.974;2023-04-19T06:44:21;100889.03;;;7.78;100.00
51439;BME280;38816;51.142;-0.974;2023-04-19T06:46:47;100907.28;;;7.87;100.00
51439;BME280;38816;51.142;-0.974;2023-04-19T06:49:12;100892.72;;;7.84;100.00
51439;BME280;38816;51.142;-0.974;2023-04-19T06:51:37;100900.66;;;7.92;100.00
51439;BME280;38816;51.142;-0.974;2023-04-19T06:54:03;100892.28;;;7.96;100.00
51439;BME280;38816;51.142;-0.974;2023-04-19T06:56:58;100903.03;;;8.10;100.00
51439;BME280;38816;51.142;-0.974;2023-04-19T06:59:23;100894.25;;;8.03;100.00
51439;BME280;38816;51.142;-0.974;2023-04-19T07:01:52;100895.13;;;8.04;100.00
51439;BME280;38816;51.142;-0.974;2023-04-19T07:04:18;100897.31;;;8.17;100.00
51439;BME280;38816;51.142;-0.974;2023-04-19T07:06:47;100894.19;;;8.24;100.00
51439;BME280;38816;51.142;-0.974;2023-04-19T07:09:13;100906.53;;;8.36;100.00
51439;BME280;38816;51.142;-0.974;2023-04-19T07:11:39;100898.47;;;8.48;100.00
51439;BME280;38816;51.142;-0.974;2023-04-19T07:14:04;100907.19;;;8.53;100.00
51439;BME280;38816;51.142;-0.974;2023-04-19T07:16:29;100920.31;;;8.62;100.00
51439;BME280;38816;51.142;-0.974;2023-04-19T07:18:55;100914.47;;;8.66;100.00
51439;BME280;38816;51.142;-0.974;2023-04-19T07:21:21;100915.78;;;8.79;100.00
51439;BME280;38816;51.142;-0.974;2023-04-19T07:23:48;100915.28;;;8.89;100.00
51439;BME280;38816;51.142;-0.974;2023-04-19T07:26:14;100904.25;;;8.92;100.00
51439;BME280;38816;51.142;-0.974;2023-04-19T07:28:39;100918.41;;;9.06;100.00
51439;BME280;38816;51.142;-0.974;2023-04-19T07:31:05;100897.81;;;9.04;100.00
51439;BME280;38816;51.142;-0.974;2023-04-19T07:33:30;100910.91;;;9.12;100.00
51439;BME280;38816;51.142;-0.974;2023-04-19T07:35:56;100910.06;;;9.13;100.00
51439;BME280;38816;51.142;-0.974;2023-04-19T07:38:21;100904.44;;;9.23;100.00
51439;BME280;38816;51.142;-0.974;2023-04-19T07:40:47;100910.03;;;9.37;100.00
51439;BME280;38816;51.142;-0.974;2023-04-19T07:43:12;100901.69;;;9.44;100.00
51439;BME280;38816;51.142;-0.974;2023-04-19T07:45:38;100914.09;;;9.59;100.00
51439;BME280;38816;51.142;-0.974;2023-04-19T07:48:04;100907.44;;;9.64;100.00
51439;BME280;38816;51.142;-0.974;2023-04-19T07:50:30;100896.63;;;9.74;100.00
51439;BME280;38816;51.142;-0.974;2023-04-19T07:52:55;100894.44;;;9.86;100.00
51439;BME280;38816;51.142;-0.974;2023-04-19T07:55:21;100902.59;;;10.02;100.00
51439;BME280;38816;51.142;-0.974;2023-04-19T07:57:47;100914.78;;;10.09;100.00
51439;BME280;38816;51.142;-0.974;2023-04-19T08:00:16;100918.16;;;10.08;100.00
51439;BME280;38816;51.142;-0.974;2023-04-19T08:02:43;100911.75;;;9.94;100.00
51439;BME280;38816;51.142;-0.974;2023-04-19T08:05:10;100906.31;;;9.83;100.00
51439;BME280;38816;51.142;-0.974;2023-04-19T08:07:35;100902.50;;;9.70;100.00
51439;BME280;38816;51.142;-0.974;2023-04-19T08:10:01;100913.50;;;9.66;100.00
51439;BME280;38816;51.142;-0.974;2023-04-19T08:12:26;100903.22;;;9.66;100.00
51439;BME280;38816;51.142;-0.974;2023-04-19T08:14:52;100916.94;;;9.67;100.00
51439;BME280;38816;51.142;-0.974;2023-04-19T08:17:18;100924.53;;;9.63;100.00
51439;BME280;38816;51.142;-0.974;2023-04-19T08:19:46;100903.03;;;9.60;100.00
51439;BME280;38816;51.142;-0.974;2023-04-19T08:22:14;100922.19;;;9.71;100.00
51439;BME280;38816;51.142;-0.974;2023-04-19T08:24:40;100918.41;;;9.87;100.00
51439;BME280;38816;51.142;-0.974;2023-04-19T08:27:05;100922.22;;;10.00;100.00
51439;BME280;38816;51.142;-0.974;2023-04-19T08:29:31;100918.53;;;10.20;100.00
51439;BME280;38816;51.142;-0.974;2023-04-19T08:31:57;100911.56;;;10.45;100.00
51439;BME280;38816;51.142;-0.974;2023-04-19T08:34:23;100899.44;;;10.72;100.00
51439;BME280;38816;51.142;-0.974;2023-04-19T08:36:48;100927.63;;;11.02;100.00
51439;BME280;38816;51.142;-0.974;2023-04-19T08:39:13;100921.09;;;11.15;100.00
51439;BME280;38816;51.142;-0.974;2023-04-19T08:41:39;100909.97;;;11.16;100.00
51439;BME280;38816;51.142;-0.974;2023-04-19T08:44:04;100924.41;;;11.46;100.00
51439;BME280;38816;51.142;-0.974;2023-04-19T08:46:31;100923.97;;;11.62;100.00
51439;BME280;38816;51.142;-0.974;2023-04-19T08:48:58;100928.19;;;11.60;100.00
51439;BME280;38816;51.142;-0.974;2023-04-19T08:51:24;100931.22;;;11.44;100.00
51439;BME280;38816;51.142;-0.974;2023-04-19T08:53:51;100933.53;;;11.33;100.00
51439;BME280;38816;51.142;-0.974;2023-04-19T08:56:16;100934.19;;;11.24;100.00
51439;BME280;38816;51.142;-0.974;2023-04-19T08:58:42;100923.28;;;11.34;100.00
51439;BME280;38816;51.142;-0.974;2023-04-19T09:01:07;100928.00;;;11.88;100.00
51439;BME280;38816;51.142;-0.974;2023-04-19T09:03:33;100915.75;;;12.19;100.00
51439;BME280;38816;51.142;-0.974;2023-04-19T09:06:00;100929.09;;;12.40;100.00
51439;BME280;38816;51.142;-0.974;2023-04-19T09:08:27;100935.22;;;12.46;100.00
51439;BME280;38816;51.142;-0.974;2023-04-19T09:10:57;100929.75;;;12.30;100.00
51439;BME280;38816;51.142;-0.974;2023-04-19T09:13:24;100924.91;;;12.05;100.00
51439;BME280;38816;51.142;-0.974;2023-04-19T09:15:50;100929.69;;;12.27;100.00
51439;BME280;38816;51.142;-0.974;2023-04-19T09:18:17;100923.88;;;12.37;100.00
51439;BME280;38816;51.142;-0.974;2023-04-19T09:20:44;100918.09;;;12.49;100.00
51439;BME280;38816;51.142;-0.974;2023-04-19T09:23:12;100928.78;;;12.69;100.00
51439;BME280;38816;51.142;-0.974;2023-04-19T09:25:38;100916.88;;;12.76;100.00
51439;BME280;38816;51.142;-0.974;2023-04-19T09:28:11;100923.75;;;12.75;100.00
51439;BME280;38816;51.142;-0.974;2023-04-19T09:30:37;100915.53;;;12.49;100.00
51439;BME280;38816;51.142;-0.974;2023-04-19T09:33:02;100921.25;;;12.34;100.00
51439;BME280;38816;51.142;-0.974;2023-04-19T09:35:41;100914.50;;;12.42;100.00
51439;BME280;38816;51.142;-0.974;2023-04-19T09:38:07;100911.75;;;12.33;100.00
51439;BME280;38816;51.142;-0.974;2023-04-19T09:40:33;100923.66;;;12.27;100.00
51439;BME280;38816;51.142;-0.974;2023-04-19T09:42:59;100919.38;;;12.27;100.00
51439;BME280;38816;51.142;-0.974;2023-04-19T09:45:26;100927.53;;;12.49;100.00
51439;BME280;38816;51.142;-0.974;2023-04-19T09:48:03;100919.03;;;13.01;100.00
51439;BME280;38816;51.142;-0.974;2023-04-19T09:50:29;100915.03;;;13.17;97.24
51439;BME280;38816;51.142;-0.974;2023-04-19T09:52:54;100907.13;;;13.09;96.65
51439;BME280;38816;51.142;-0.974;2023-04-19T09:55:21;100908.59;;;12.93;96.32
51439;BME280;38816;51.142;-0.974;2023-04-19T09:57:48;100917.28;;;12.99;98.31
51439;BME280;38816;51.142;-0.974;2023-04-19T10:00:13;100915.22;;;13.28;100.00
51439;BME280;38816;51.142;-0.974;2023-04-19T10:02:39;100906.09;;;13.50;99.02
51439;BME280;38816;51.142;-0.974;2023-04-19T10:05:07;100910.78;;;13.77;93.27
51439;BME280;38816;51.142;-0.974;2023-04-19T10:07:34;100898.69;;;13.73;92.39
51439;BME280;38816;51.142;-0.974;2023-04-19T10:10:01;100904.81;;;13.79;93.13
51439;BME280;38816;51.142;-0.974;2023-04-19T10:12:29;100904.72;;;13.73;90.47
51439;BME280;38816;51.142;-0.974;2023-04-19T10:14:55;100907.34;;;13.75;92.30
51439;BME280;38816;51.142;-0.974;2023-04-19T10:17:23;100899.53;;;13.73;92.33
51439;BME280;38816;51.142;-0.974;2023-04-19T10:20:11;100906.59;;;13.83;89.32
51439;BME280;38816;51.142;-0.974;2023-04-19T10:22:37;100885.00;;;13.80;90.42
51439;BME280;38816;51.142;-0.974;2023-04-19T10:25:11;100892.06;;;13.91;89.56
51439;BME280;38816;51.142;-0.974;2023-04-19T10:27:38;100903.44;;;14.06;85.63
51439;BME280;38816;51.142;-0.974;2023-04-19T10:30:04;100891.41;;;14.09;85.26
51439;BME280;38816;51.142;-0.974;2023-04-19T10:32:39;100883.56;;;14.02;86.11
51439;BME280;38816;51.142;-0.974;2023-04-19T10:35:20;100887.94;;;14.07;88.15
51439;BME280;38816;51.142;-0.974;2023-04-19T10:43:29;100890.78;;;13.60;88.22
51439;BME280;38816;51.142;-0.974;2023-04-19T10:45:58;100891.59;;;13.58;90.44
51439;BME280;38816;51.142;-0.974;2023-04-19T10:50:57;100880.41;;;13.59;88.08
51439;BME280;38816;51.142;-0.974;2023-04-19T10:56:09;100885.06;;;13.84;87.45
51439;BME280;38816;51.142;-0.974;2023-04-19T11:01:56;100864.50;;;13.95;88.32
51439;BME280;38816;51.142;-0.974;2023-04-19T11:07:03;100881.38;;;14.35;84.85
51439;BME280;38816;51.142;-0.974;2023-04-19T11:09:33;100882.34;;;14.45;84.67
51439;BME280;38816;51.142;-0.974;2023-04-19T11:12:04;100879.00;;;14.51;84.11
51439;BME280;38816;51.142;-0.974;2023-04-19T11:14:54;100876.44;;;14.54;85.41
51439;BME280;38816;51.142;-0.974;2023-04-19T11:17:25;100880.00;;;14.65;84.75
51439;BME280;38816;51.142;-0.974;2023-04-19T11:20:04;100883.56;;;14.75;85.25
51439;BME280;38816;51.142;-0.974;2023-04-19T11:22:41;100880.38;;;15.08;83.46
51439;BME280;38816;51.142;-0.974;2023-04-19T11:25:20;100864.97;;;15.23;77.83
51439;BME280;38816;51.142;-0.974;2023-04-19T11:27:47;100860.63;;;15.19;77.99
51439;BME280;38816;51.142;-0.974;2023-04-19T11:30:15;100865.03;;;15.32;77.37
51439;BME280;38816;51.142;-0.974;2023-04-19T11:32:46;100859.91;;;15.38;77.58
51439;BME280;38816;51.142;-0.974;2023-04-19T11:35:13;100853.91;;;15.45;77.99
51439;BME280;38816;51.142;-0.974;2023-04-19T11:37:38;100857.41;;;15.57;75.36
51439;BME280;38816;51.142;-0.974;2023-04-19T11:40:06;100853.84;;;15.38;73.10
51439;BME280;38816;51.142;-0.974;2023-04-19T11:42:33;100851.13;;;15.21;73.82
51439;BME280;38816;51.142;-0.974;2023-04-19T11:44:58;100846.75;;;15.12;73.30
51439;BME280;38816;51.142;-0.974;2023-04-19T11:47:27;100849.50;;;15.35;76.49
51439;BME280;38816;51.142;-0.974;2023-04-19T11:49:55;100858.44;;;15.79;72.05
51439;BME280;38816;51.142;-0.974;2023-04-19T11:52:23;100854.13;;;15.76;73.30
51439;BME280;38816;51.142;-0.974;2023-04-19T11:54:52;100842.00;;;15.74;71.34
51439;BME280;38816;51.142;-0.974;2023-04-19T11:57:28;100834.13;;;15.61;71.99
51439;BME280;38816;51.142;-0.974;2023-04-19T12:00:07;100837.56;;;15.60;71.61
51439;BME280;38816;51.142;-0.974;2023-04-19T12:02:37;100844.50;;;15.58;71.01
51439;BME280;38816;51.142;-0.974;2023-04-19T12:05:13;100854.06;;;15.70;70.92
51439;BME280;38816;51.142;-0.974;2023-04-19T12:08:01;100840.34;;;15.86;69.82
51439;BME280;38816;51.142;-0.974;2023-04-19T12:10:28;100817.00;;;15.92;67.99
51439;BME280;38816;51.142;-0.974;2023-04-19T12:12:53;100841.28;;;16.10;67.12
51439;BME280;38816;51.142;-0.974;2023-04-19T12:15:19;100845.63;;;16.18;69.89
51439;BME280;38816;51.142;-0.974;2023-04-19T12:18:00;100837.81;;;15.99;65.84
51439;BME280;38816;51.142;-0.974;2023-04-19T12:20:34;100838.53;;;15.72;67.91
51439;BME280;38816;51.142;-0.974;2023-04-19T12:23:01;100830.84;;;15.90;69.71
51439;BME280;38816;51.142;-0.974;2023-04-19T12:25:32;100841.22;;;15.91;68.34
51439;BME280;38816;51.142;-0.974;2023-04-19T12:27:59;100822.13;;;15.73;68.02
51439;BME280;38816;51.142;-0.974;2023-04-19T12:30:25;100839.31;;;15.60;67.38
51439;BME280;38816;51.142;-0.974;2023-04-19T12:32:52;100815.03;;;15.42;67.24
51439;BME280;38816;51.142;-0.974;2023-04-19T12:35:24;100829.56;;;15.19;68.73
51439;BME280;38816;51.142;-0.974;2023-04-19T12:37:51;100822.63;;;15.16;70.80
51439;BME280;38816;51.142;-0.974;2023-04-19T12:40:17;100812.34;;;15.27;73.00
51439;BME280;38816;51.142;-0.974;2023-04-19T12:42:42;100820.09;;;15.24;71.68
51439;BME280;38816;51.142;-0.974;2023-04-19T12:45:08;100807.00;;;15.07;70.94
51439;BME280;38816;51.142;-0.974;2023-04-19T12:47:34;100808.84;;;15.19;70.48
51439;BME280;38816;51.142;-0.974;2023-04-19T12:49:59;100814.19;;;15.53;70.47
51439;BME280;38816;51.142;-0.974;2023-04-19T12:52:26;100796.19;;;15.68;69.98
51439;BME280;38816;51.142;-0.974;2023-04-19T12:54:51;100796.00;;;15.37;69.38